sensor_id;sensor_type;location;lat;lon;timestamp;P1;durP1;ratioP1;P2;durP2;ratioP2
17420;SDS011;8828;48.800;9.540;2023-03-23T00:01:09;2.90;;;1.90;;
17420;SDS011;8828;48.800;9.540;2023-03-23T00:03:44;3.40;;;2.00;;
17420;SDS011;8828;48.800;9.540;2023-03-23T00:06:13;2.80;;;1.83;;
17420;SDS011;8828;48.800;9.540;2023-03-23T00:08:44;3.23;;;1.93;;
17420;SDS011;8828;48.800;9.540;2023-03-23T00:11:12;3.23;;;1.90;;
17420;SDS011;8828;48.800;9.540;2023-03-23T00:13:41;3.87;;;1.83;;
17420;SDS011;8828;48.800;9.540;2023-03-23T00:16:09;4.03;;;1.80;;
17420;SDS011;8828;48.800;9.540;2023-03-23T00:18:43;4.00;;;2.00;;
17420;SDS011;8828;48.800;9.540;2023-03-23T00:21:10;2.67;;;2.00;;
17420;SDS011;8828;48.800;9.540;2023-03-23T00:23:37;3.67;;;2.03;;
17420;SDS011;8828;48.800;9.540;2023-03-23T00:26:06;4.33;;;2.20;;
17420;SDS011;8828;48.800;9.540;2023-03-23T00:28:33;3.87;;;2.10;;
17420;SDS011;8828;48.800;9.540;2023-03-23T00:31:01;3.50;;;2.13;;
17420;SDS011;8828;48.800;9.540;2023-03-23T00:33:29;2.93;;;1.80;;
17420;SDS011;8828;48.800;9.540;2023-03-23T00:35:59;2.63;;;1.80;;
17420;SDS011;8828;48.800;9.540;2023-03-23T00:38:26;3.07;;;1.83;;
17420;SDS011;8828;48.800;9.540;2023-03-23T00:40:52;2.43;;;1.90;;
17420;SDS011;8828;48.800;9.540;2023-03-23T00:43:24;2.80;;;1.83;;
17420;SDS011;8828;48.800;9.540;2023-03-23T00:45:54;2.87;;;1.73;;
17420;SDS011;8828;48.800;9.540;2023-03-23T00:48:22;2.67;;;1.97;;
17420;SDS011;8828;48.800;9.540;2023-03-23T00:50:50;3.17;;;1.70;;
17420;SDS011;8828;48.800;9.540;2023-03-23T00:53:18;2.40;;;1.60;;
17420;SDS011;8828;48.800;9.540;2023-03-23T00:55:46;3.10;;;1.83;;
17420;SDS011;8828;48.800;9.540;2023-03-23T00:58:13;3.23;;;1.90;;
17420;SDS011;8828;48.800;9.540;2023-03-23T01:00:42;2.63;;;1.60;;
17420;SDS011;8828;48.800;9.540;2023-03-23T01:03:09;4.57;;;1.90;;
17420;SDS011;8828;48.800;9.540;2023-03-23T01:05:43;2.73;;;1.60;;
17420;SDS011;8828;48.800;9.540;2023-03-23T01:08:12;3.00;;;1.73;;
17420;SDS011;8828;48.800;9.540;2023-03-23T01:10:40;2.47;;;1.80;;
17420;SDS011;8828;48.800;9.540;2023-03-23T01:13:07;2.53;;;1.67;;
17420;SDS011;8828;48.800;9.540;2023-03-23T01:15:34;3.27;;;1.80;;
17420;SDS011;8828;48.800;9.540;2023-03-23T01:18:03;2.50;;;1.67;;
17420;SDS011;8828;48.800;9.540;2023-03-23T01:20:30;1.93;;;1.57;;
17420;SDS011;8828;48.800;9.540;2023-03-23T01:22:57;7.13;;;1.70;;
17420;SDS011;8828;48.800;9.540;2023-03-23T01:25:26;2.47;;;1.60;;
17420;SDS011;8828;48.800;9.540;2023-03-23T01:27:53;2.43;;;1.63;;
17420;SDS011;8828;48.800;9.540;2023-03-23T01:30:21;4.57;;;2.20;;
17420;SDS011;8828;48.800;9.540;2023-03-23T01:32:47;2.63;;;1.53;;
17420;SDS011;8828;48.800;9.540;2023-03-23T01:35:16;2.17;;;1.60;;
17420;SDS011;8828;48.800;9.540;2023-03-23T01:37:43;2.53;;;1.60;;
17420;SDS011;8828;48.800;9.540;2023-03-23T01:40:10;3.50;;;1.70;;
17420;SDS011;8828;48.800;9.540;2023-03-23T01:42:38;2.47;;;1.50;;
17420;SDS011;8828;48.800;9.540;2023-03-23T01:48:01;2.10;;;1.50;;
17420;SDS011;8828;48.800;9.540;2023-03-23T01:50:34;1.90;;;1.67;;
17420;SDS011;8828;48.800;9.540;2023-03-23T01:53:06;2.80;;;1.60;;
17420;SDS011;8828;48.800;9.540;2023-03-23T01:55:35;2.10;;;1.67;;
17420;SDS011;8828;48.800;9.540;2023-03-23T01:58:06;2.33;;;1.73;;
17420;SDS011;8828;48.800;9.540;2023-03-23T02:00:34;3.00;;;1.80;;
17420;SDS011;8828;48.800;9.540;2023-03-23T02:03:02;2.47;;;1.90;;
17420;SDS011;8828;48.800;9.540;2023-03-23T02:05:30;2.90;;;1.70;;
17420;SDS011;8828;48.800;9.540;2023-03-23T02:08:02;2.50;;;1.50;;
17420;SDS011;8828;48.800;9.540;2023-03-23T02:10:31;2.10;;;1.70;;
17420;SDS011;8828;48.800;9.540;2023-03-23T02:13:00;3.77;;;1.77;;
17420;SDS011;8828;48.800;9.540;2023-03-23T02:15:32;2.93;;;1.90;;
17420;SDS011;8828;48.800;9.540;2023-03-23T02:18:06;2.80;;;1.60;;
17420;SDS011;8828;48.800;9.540;2023-03-23T02:20:47;2.47;;;1.40;;
17420;SDS011;8828;48.800;9.540;2023-03-23T02:26:57;3.57;;;1.73;;
17420;SDS011;8828;48.800;9.540;2023-03-23T02:29:29;2.77;;;1.63;;
17420;SDS011;8828;48.800;9.540;2023-03-23T02:32:12;1.73;;;1.50;;
17420;SDS011;8828;48.800;9.540;2023-03-23T02:34:50;2.53;;;1.90;;
17420;SDS011;8828;48.800;9.540;2023-03-23T02:37:20;2.70;;;1.80;;
17420;SDS011;8828;48.800;9.540;2023-03-23T02:39:52;3.03;;;1.80;;
17420;SDS011;8828;48.800;9.540;2023-03-23T02:42:24;3.57;;;1.97;;
17420;SDS011;8828;48.800;9.540;2023-03-23T02:44:56;2.27;;;1.50;;
17420;SDS011;8828;48.800;9.540;2023-03-23T02:47:29;4.00;;;1.50;;
17420;SDS011;8828;48.800;9.540;2023-03-23T02:49:57;4.00;;;1.77;;
17420;SDS011;8828;48.800;9.540;2023-03-23T02:52:26;2.30;;;1.67;;
17420;SDS011;8828;48.800;9.540;2023-03-23T02:54:55;1.90;;;1.53;;
17420;SDS011;8828;48.800;9.540;2023-03-23T02:57:24;3.80;;;1.50;;
17420;SDS011;8828;48.800;9.540;2023-03-23T02:59:53;2.43;;;1.63;;
17420;SDS011;8828;48.800;9.540;2023-03-23T03:02:21;2.10;;;1.50;;
17420;SDS011;8828;48.800;9.540;2023-03-23T03:04:52;1.87;;;1.50;;
17420;SDS011;8828;48.800;9.540;2023-03-23T03:07:32;3.13;;;1.43;;
17420;SDS011;8828;48.800;9.540;2023-03-23T03:10:05;1.93;;;1.60;;
17420;SDS011;8828;48.800;9.540;2023-03-23T03:12:39;3.87;;;1.70;;
17420;SDS011;8828;48.800;9.540;2023-03-23T03:15:14;2.60;;;1.70;;
17420;SDS011;8828;48.800;9.540;2023-03-23T03:17:51;3.50;;;1.57;;
17420;SDS011;8828;48.800;9.540;2023-03-23T03:20:22;3.50;;;1.30;;
17420;SDS011;8828;48.800;9.540;2023-03-23T03:22:53;1.87;;;1.40;;
17420;SDS011;8828;48.800;9.540;2023-03-23T03:25:21;2.60;;;1.50;;
17420;SDS011;8828;48.800;9.540;2023-03-23T03:27:49;1.90;;;1.40;;
17420;SDS011;8828;48.800;9.540;2023-03-23T03:30:18;3.17;;;1.40;;
17420;SDS011;8828;48.800;9.540;2023-03-23T03:32:51;2.57;;;1.50;;
17420;SDS011;8828;48.800;9.540;2023-03-23T03:35:20;2.87;;;1.80;;
17420;SDS011;8828;48.800;9.540;2023-03-23T03:37:48;1.93;;;1.50;;
17420;SDS011;8828;48.800;9.540;2023-03-23T03:40:18;3.20;;;1.67;;
17420;SDS011;8828;48.800;9.540;2023-03-23T03:42:47;2.83;;;1.27;;
17420;SDS011;8828;48.800;9.540;2023-03-23T03:45:14;3.30;;;1.33;;
17420;SDS011;8828;48.800;9.540;2023-03-23T03:47:43;2.50;;;1.60;;
17420;SDS011;8828;48.800;9.540;2023-03-23T03:50:10;3.00;;;1.80;;
17420;SDS011;8828;48.800;9.540;2023-03-23T03:52:37;3.43;;;1.80;;
17420;SDS011;8828;48.800;9.540;2023-03-23T03:55:05;2.70;;;1.40;;
17420;SDS011;8828;48.800;9.540;2023-03-23T03:57:34;1.80;;;1.40;;
17420;SDS011;8828;48.800;9.540;2023-03-23T04:00:02;2.67;;;1.60;;
17420;SDS011;8828;48.800;9.540;2023-03-23T04:02:39;2.47;;;1.60;;
17420;SDS011;8828;48.800;9.540;2023-03-23T04:05:07;2.40;;;1.70;;
17420;SDS011;8828;48.800;9.540;2023-03-23T04:07:35;3.27;;;2.03;;
17420;SDS011;8828;48.800;9.540;2023-03-23T04:10:03;2.00;;;1.70;;
17420;SDS011;8828;48.800;9.540;2023-03-23T04:12:32;2.03;;;1.40;;
17420;SDS011;8828;48.800;9.540;2023-03-23T04:15:00;4.20;;;1.80;;
17420;SDS011;8828;48.800;9.540;2023-03-23T04:17:27;3.00;;;1.57;;
17420;SDS011;8828;48.800;9.540;2023-03-23T04:19:54;4.70;;;1.73;;
17420;SDS011;8828;48.800;9.540;2023-03-23T04:22:22;3.40;;;2.00;;
17420;SDS011;8828;48.800;9.540;2023-03-23T04:24:55;2.10;;;1.77;;
17420;SDS011;8828;48.800;9.540;2023-03-23T04:27:25;3.17;;;1.90;;
17420;SDS011;8828;48.800;9.540;2023-03-23T04:29:53;3.03;;;1.80;;
17420;SDS011;8828;48.800;9.540;2023-03-23T04:32:22;4.17;;;2.07;;
17420;SDS011;8828;48.800;9.540;2023-03-23T04:34:50;2.17;;;1.60;;
17420;SDS011;8828;48.800;9.540;2023-03-23T04:37:17;1.60;;;1.40;;
17420;SDS011;8828;48.800;9.540;2023-03-23T04:39:44;2.40;;;1.47;;
17420;SDS011;8828;48.800;9.540;2023-03-23T04:42:11;2.03;;;1.60;;
17420;SDS011;8828;48.800;9.540;2023-03-23T04:44:39;3.67;;;1.83;;
17420;SDS011;8828;48.800;9.540;2023-03-23T04:47:08;2.40;;;1.40;;
17420;SDS011;8828;48.800;9.540;2023-03-23T04:49:36;2.40;;;1.47;;
17420;SDS011;8828;48.800;9.540;2023-03-23T04:52:03;2.00;;;1.57;;
17420;SDS011;8828;48.800;9.540;2023-03-23T04:54:30;6.30;;;1.70;;
17420;SDS011;8828;48.800;9.540;2023-03-23T04:56:57;2.20;;;1.53;;
17420;SDS011;8828;48.800;9.540;2023-03-23T04:59:24;1.70;;;1.37;;
17420;SDS011;8828;48.800;9.540;2023-03-23T05:01:52;2.13;;;1.53;;
17420;SDS011;8828;48.800;9.540;2023-03-23T05:04:21;6.00;;;1.50;;
17420;SDS011;8828;48.800;9.540;2023-03-23T05:06:51;1.97;;;1.50;;
17420;SDS011;8828;48.800;9.540;2023-03-23T05:09:18;3.10;;;1.70;;
17420;SDS011;8828;48.800;9.540;2023-03-23T05:11:46;3.03;;;1.90;;
17420;SDS011;8828;48.800;9.540;2023-03-23T05:14:12;17.93;;;8.73;;
17420;SDS011;8828;48.800;9.540;2023-03-23T05:16:40;7.87;;;3.73;;
17420;SDS011;8828;48.800;9.540;2023-03-23T05:19:07;2.93;;;2.03;;
17420;SDS011;8828;48.800;9.540;2023-03-23T05:21:33;3.20;;;1.47;;
17420;SDS011;8828;48.800;9.540;2023-03-23T05:24:03;3.77;;;1.70;;
17420;SDS011;8828;48.800;9.540;2023-03-23T05:26:31;1.97;;;1.50;;
17420;SDS011;8828;48.800;9.540;2023-03-23T05:28:58;1.97;;;1.50;;
17420;SDS011;8828;48.800;9.540;2023-03-23T05:31:25;2.50;;;1.60;;
17420;SDS011;8828;48.800;9.540;2023-03-23T05:33:52;2.17;;;1.67;;
17420;SDS011;8828;48.800;9.540;2023-03-23T05:36:19;2.77;;;1.87;;
17420;SDS011;8828;48.800;9.540;2023-03-23T05:38:48;5.03;;;2.20;;
17420;SDS011;8828;48.800;9.540;2023-03-23T05:41:18;2.13;;;1.70;;
17420;SDS011;8828;48.800;9.540;2023-03-23T05:43:45;5.97;;;4.33;;
17420;SDS011;8828;48.800;9.540;2023-03-23T05:46:11;15.73;;;6.17;;
17420;SDS011;8828;48.800;9.540;2023-03-23T05:48:39;9.47;;;5.37;;
17420;SDS011;8828;48.800;9.540;2023-03-23T05:51:06;4.83;;;2.30;;
17420;SDS011;8828;48.800;9.540;2023-03-23T05:53:33;3.80;;;1.80;;
17420;SDS011;8828;48.800;9.540;2023-03-23T05:56:00;4.37;;;1.87;;
17420;SDS011;8828;48.800;9.540;2023-03-23T05:58:29;2.27;;;1.87;;
17420;SDS011;8828;48.800;9.540;2023-03-23T06:00:57;2.93;;;2.57;;
17420;SDS011;8828;48.800;9.540;2023-03-23T06:03:24;3.43;;;2.07;;
17420;SDS011;8828;48.800;9.540;2023-03-23T06:05:51;4.53;;;1.93;;
17420;SDS011;8828;48.800;9.540;2023-03-23T06:08:18;5.13;;;1.90;;
17420;SDS011;8828;48.800;9.540;2023-03-23T06:10:45;5.23;;;2.20;;
17420;SDS011;8828;48.800;9.540;2023-03-23T06:13:13;3.40;;;2.07;;
17420;SDS011;8828;48.800;9.540;2023-03-23T06:15:41;5.87;;;2.00;;
17420;SDS011;8828;48.800;9.540;2023-03-23T06:18:08;5.33;;;3.40;;
17420;SDS011;8828;48.800;9.540;2023-03-23T06:20:35;15.53;;;7.73;;
17420;SDS011;8828;48.800;9.540;2023-03-23T06:23:02;13.10;;;7.23;;
17420;SDS011;8828;48.800;9.540;2023-03-23T06:25:29;4.53;;;3.10;;
17420;SDS011;8828;48.800;9.540;2023-03-23T06:27:56;4.03;;;2.10;;
17420;SDS011;8828;48.800;9.540;2023-03-23T06:30:23;3.23;;;2.00;;
17420;SDS011;8828;48.800;9.540;2023-03-23T06:32:53;2.50;;;2.03;;
17420;SDS011;8828;48.800;9.540;2023-03-23T06:35:20;3.27;;;2.40;;
17420;SDS011;8828;48.800;9.540;2023-03-23T06:37:47;2.47;;;2.00;;
17420;SDS011;8828;48.800;9.540;2023-03-23T06:40:14;3.17;;;2.13;;
17420;SDS011;8828;48.800;9.540;2023-03-23T06:42:43;2.73;;;1.97;;
17420;SDS011;8828;48.800;9.540;2023-03-23T06:45:10;3.23;;;2.00;;
17420;SDS011;8828;48.800;9.540;2023-03-23T06:47:37;3.13;;;2.07;;
17420;SDS011;8828;48.800;9.540;2023-03-23T06:50:06;5.47;;;2.40;;
17420;SDS011;8828;48.800;9.540;2023-03-23T06:52:34;5.43;;;2.20;;
17420;SDS011;8828;48.800;9.540;2023-03-23T06:55:01;4.03;;;2.10;;
17420;SDS011;8828;48.800;9.540;2023-03-23T06:57:28;3.00;;;1.90;;
17420;SDS011;8828;48.800;9.540;2023-03-23T06:59:55;4.87;;;2.17;;
17420;SDS011;8828;48.800;9.540;2023-03-23T07:02:22;4.93;;;2.37;;
17420;SDS011;8828;48.800;9.540;2023-03-23T07:04:48;4.30;;;2.53;;
17420;SDS011;8828;48.800;9.540;2023-03-23T07:07:17;7.90;;;4.20;;
17420;SDS011;8828;48.800;9.540;2023-03-23T07:09:44;6.17;;;3.57;;
17420;SDS011;8828;48.800;9.540;2023-03-23T07:12:11;5.17;;;3.10;;
17420;SDS011;8828;48.800;9.540;2023-03-23T07:14:39;4.10;;;2.70;;
17420;SDS011;8828;48.800;9.540;2023-03-23T07:17:06;5.33;;;2.90;;
17420;SDS011;8828;48.800;9.540;2023-03-23T07:19:33;9.17;;;2.87;;
17420;SDS011;8828;48.800;9.540;2023-03-23T07:22:01;5.23;;;2.20;;
17420;SDS011;8828;48.800;9.540;2023-03-23T07:24:31;4.23;;;2.60;;
17420;SDS011;8828;48.800;9.540;2023-03-23T07:26:58;3.13;;;2.20;;
17420;SDS011;8828;48.800;9.540;2023-03-23T07:29:25;4.07;;;2.80;;
17420;SDS011;8828;48.800;9.540;2023-03-23T07:31:52;3.67;;;2.50;;
17420;SDS011;8828;48.800;9.540;2023-03-23T07:34:20;5.57;;;2.80;;
17420;SDS011;8828;48.800;9.540;2023-03-23T07:36:47;3.73;;;2.27;;
17420;SDS011;8828;48.800;9.540;2023-03-23T07:39:14;3.60;;;2.40;;
17420;SDS011;8828;48.800;9.540;2023-03-23T07:41:42;4.33;;;2.10;;
17420;SDS011;8828;48.800;9.540;2023-03-23T07:44:09;4.70;;;2.33;;
17420;SDS011;8828;48.800;9.540;2023-03-23T07:46:36;4.03;;;2.70;;
17420;SDS011;8828;48.800;9.540;2023-03-23T07:49:03;3.40;;;2.33;;
17420;SDS011;8828;48.800;9.540;2023-03-23T07:51:31;4.00;;;2.33;;
17420;SDS011;8828;48.800;9.540;2023-03-23T07:53:58;3.77;;;2.10;;
17420;SDS011;8828;48.800;9.540;2023-03-23T07:56:25;6.17;;;2.87;;
17420;SDS011;8828;48.800;9.540;2023-03-23T07:58:53;3.67;;;2.00;;
17420;SDS011;8828;48.800;9.540;2023-03-23T08:01:34;5.07;;;2.30;;
17420;SDS011;8828;48.800;9.540;2023-03-23T08:04:01;5.40;;;2.50;;
17420;SDS011;8828;48.800;9.540;2023-03-23T08:06:28;3.70;;;2.40;;
17420;SDS011;8828;48.800;9.540;2023-03-23T08:08:55;4.60;;;2.83;;
17420;SDS011;8828;48.800;9.540;2023-03-23T08:11:22;4.07;;;2.30;;
17420;SDS011;8828;48.800;9.540;2023-03-23T08:13:48;4.13;;;2.50;;
17420;SDS011;8828;48.800;9.540;2023-03-23T08:16:17;5.00;;;2.53;;
17420;SDS011;8828;48.800;9.540;2023-03-23T08:18:44;5.23;;;2.87;;
17420;SDS011;8828;48.800;9.540;2023-03-23T08:21:11;4.47;;;2.53;;
17420;SDS011;8828;48.800;9.540;2023-03-23T08:23:38;12.50;;;5.73;;
17420;SDS011;8828;48.800;9.540;2023-03-23T08:26:06;5.07;;;1.70;;
17420;SDS011;8828;48.800;9.540;2023-03-23T08:28:34;2.30;;;1.53;;
17420;SDS011;8828;48.800;9.540;2023-03-23T08:31:05;5.47;;;1.73;;
17420;SDS011;8828;48.800;9.540;2023-03-23T08:33:34;3.73;;;1.70;;
17420;SDS011;8828;48.800;9.540;2023-03-23T08:36:01;3.10;;;1.40;;
17420;SDS011;8828;48.800;9.540;2023-03-23T08:38:29;3.47;;;1.50;;
17420;SDS011;8828;48.800;9.540;2023-03-23T08:40:57;3.13;;;1.37;;
17420;SDS011;8828;48.800;9.540;2023-03-23T08:43:25;2.33;;;1.20;;
17420;SDS011;8828;48.800;9.540;2023-03-23T08:45:52;1.70;;;1.23;;
17420;SDS011;8828;48.800;9.540;2023-03-23T08:48:19;3.47;;;1.77;;
17420;SDS011;8828;48.800;9.540;2023-03-23T08:50:47;1.70;;;1.13;;
17420;SDS011;8828;48.800;9.540;2023-03-23T08:53:15;2.77;;;1.80;;
17420;SDS011;8828;48.800;9.540;2023-03-23T08:55:43;2.30;;;1.40;;
17420;SDS011;8828;48.800;9.540;2023-03-23T08:58:10;1.50;;;1.20;;
17420;SDS011;8828;48.800;9.540;2023-03-23T09:00:37;1.83;;;1.27;;
17420;SDS011;8828;48.800;9.540;2023-03-23T09:03:04;4.63;;;1.30;;
17420;SDS011;8828;48.800;9.540;2023-03-23T09:05:32;2.20;;;1.50;;
17420;SDS011;8828;48.800;9.540;2023-03-23T09:08:00;1.40;;;1.27;;
17420;SDS011;8828;48.800;9.540;2023-03-23T09:10:28;1.07;;;0.97;;
17420;SDS011;8828;48.800;9.540;2023-03-23T09:12:56;1.67;;;1.23;;
17420;SDS011;8828;48.800;9.540;2023-03-23T09:15:23;2.13;;;1.10;;
17420;SDS011;8828;48.800;9.540;2023-03-23T09:17:51;3.80;;;1.77;;
17420;SDS011;8828;48.800;9.540;2023-03-23T09:20:20;2.93;;;1.40;;
17420;SDS011;8828;48.800;9.540;2023-03-23T09:22:49;2.57;;;1.63;;
17420;SDS011;8828;48.800;9.540;2023-03-23T09:25:20;2.17;;;1.40;;
17420;SDS011;8828;48.800;9.540;2023-03-23T09:27:49;3.67;;;1.13;;
17420;SDS011;8828;48.800;9.540;2023-03-23T09:30:21;1.60;;;1.30;;
17420;SDS011;8828;48.800;9.540;2023-03-23T09:32:49;2.07;;;1.40;;
17420;SDS011;8828;48.800;9.540;2023-03-23T09:35:16;2.23;;;1.30;;
17420;SDS011;8828;48.800;9.540;2023-03-23T09:37:46;2.50;;;1.40;;
17420;SDS011;8828;48.800;9.540;2023-03-23T09:40:15;2.67;;;1.40;;
17420;SDS011;8828;48.800;9.540;2023-03-23T09:42:49;3.17;;;1.50;;
17420;SDS011;8828;48.800;9.540;2023-03-23T09:45:25;1.70;;;1.20;;
17420;SDS011;8828;48.800;9.540;2023-03-23T09:48:01;2.10;;;1.30;;
17420;SDS011;8828;48.800;9.540;2023-03-23T09:50:41;4.30;;;2.70;;
17420;SDS011;8828;48.800;9.540;2023-03-23T09:53:12;3.47;;;1.30;;
17420;SDS011;8828;48.800;9.540;2023-03-23T09:55:43;3.17;;;1.47;;
17420;SDS011;8828;48.800;9.540;2023-03-23T09:58:14;1.40;;;1.20;;
17420;SDS011;8828;48.800;9.540;2023-03-23T10:00:50;1.60;;;1.10;;
17420;SDS011;8828;48.800;9.540;2023-03-23T10:03:21;3.47;;;1.30;;
17420;SDS011;8828;48.800;9.540;2023-03-23T10:05:53;1.20;;;1.10;;
17420;SDS011;8828;48.800;9.540;2023-03-23T10:08:22;1.60;;;1.00;;
17420;SDS011;8828;48.800;9.540;2023-03-23T10:10:55;1.53;;;1.10;;
17420;SDS011;8828;48.800;9.540;2023-03-23T10:13:31;1.97;;;1.20;;
17420;SDS011;8828;48.800;9.540;2023-03-23T10:16:09;2.00;;;1.03;;
17420;SDS011;8828;48.800;9.540;2023-03-23T10:18:43;2.27;;;1.13;;
17420;SDS011;8828;48.800;9.540;2023-03-23T10:21:17;2.33;;;1.30;;
17420;SDS011;8828;48.800;9.540;2023-03-23T10:23:50;1.90;;;1.00;;
17420;SDS011;8828;48.800;9.540;2023-03-23T10:26:25;2.03;;;1.20;;
17420;SDS011;8828;48.800;9.540;2023-03-23T10:29:14;2.40;;;1.00;;
17420;SDS011;8828;48.800;9.540;2023-03-23T10:31:45;1.80;;;1.10;;
17420;SDS011;8828;48.800;9.540;2023-03-23T10:34:17;3.33;;;1.30;;
17420;SDS011;8828;48.800;9.540;2023-03-23T10:36:51;2.67;;;1.20;;
17420;SDS011;8828;48.800;9.540;2023-03-23T10:39:23;2.20;;;1.10;;
17420;SDS011;8828;48.800;9.540;2023-03-23T10:41:53;1.40;;;1.10;;
17420;SDS011;8828;48.800;9.540;2023-03-23T10:44:23;2.80;;;1.10;;
17420;SDS011;8828;48.800;9.540;2023-03-23T10:46:53;1.37;;;0.87;;
17420;SDS011;8828;48.800;9.540;2023-03-23T10:49:26;2.47;;;1.20;;
17420;SDS011;8828;48.800;9.540;2023-03-23T10:54:50;1.43;;;1.17;;
17420;SDS011;8828;48.800;9.540;2023-03-23T10:57:20;2.03;;;1.00;;
17420;SDS011;8828;48.800;9.540;2023-03-23T10:59:51;1.73;;;1.10;;
17420;SDS011;8828;48.800;9.540;2023-03-23T11:02:23;2.77;;;1.23;;
17420;SDS011;8828;48.800;9.540;2023-03-23T11:04:55;1.87;;;1.27;;
17420;SDS011;8828;48.800;9.540;2023-03-23T11:07:27;2.43;;;1.33;;
17420;SDS011;8828;48.800;9.540;2023-03-23T11:09:56;3.17;;;1.43;;
17420;SDS011;8828;48.800;9.540;2023-03-23T11:12:33;1.87;;;1.30;;
17420;SDS011;8828;48.800;9.540;2023-03-23T11:15:09;1.97;;;1.13;;
17420;SDS011;8828;48.800;9.540;2023-03-23T11:17:59;2.40;;;1.20;;
17420;SDS011;8828;48.800;9.540;2023-03-23T11:20:29;2.23;;;1.70;;
17420;SDS011;8828;48.800;9.540;2023-03-23T11:23:01;2.00;;;1.30;;
17420;SDS011;8828;48.800;9.540;2023-03-23T11:25:33;2.43;;;1.10;;
17420;SDS011;8828;48.800;9.540;2023-03-23T11:28:13;2.03;;;1.33;;
17420;SDS011;8828;48.800;9.540;2023-03-23T11:30:42;2.33;;;1.30;;
17420;SDS011;8828;48.800;9.540;2023-03-23T11:33:09;2.40;;;1.10;;
17420;SDS011;8828;48.800;9.540;2023-03-23T11:35:42;1.83;;;1.23;;
17420;SDS011;8828;48.800;9.540;2023-03-23T11:38:12;2.57;;;1.30;;
17420;SDS011;8828;48.800;9.540;2023-03-23T11:40:43;1.57;;;1.00;;
17420;SDS011;8828;48.800;9.540;2023-03-23T11:43:14;1.93;;;1.20;;
17420;SDS011;8828;48.800;9.540;2023-03-23T11:45:47;1.93;;;1.23;;
17420;SDS011;8828;48.800;9.540;2023-03-23T11:48:21;2.80;;;1.30;;
17420;SDS011;8828;48.800;9.540;2023-03-23T11:50:54;1.60;;;1.10;;
17420;SDS011;8828;48.800;9.540;2023-03-23T11:53:27;5.50;;;1.37;;
17420;SDS011;8828;48.800;9.540;2023-03-23T11:56:05;2.17;;;1.40;;
17420;SDS011;8828;48.800;9.540;2023-03-23T11:58:36;2.30;;;1.13;;
17420;SDS011;8828;48.800;9.540;2023-03-23T12:01:09;3.73;;;1.27;;
17420;SDS011;8828;48.800;9.540;2023-03-23T12:03:56;2.63;;;1.37;;
17420;SDS011;8828;48.800;9.540;2023-03-23T12:06:47;1.73;;;1.33;;
17420;SDS011;8828;48.800;9.540;2023-03-23T12:09:28;2.57;;;1.37;;
17420;SDS011;8828;48.800;9.540;2023-03-23T12:12:07;2.77;;;1.20;;
17420;SDS011;8828;48.800;9.540;2023-03-23T12:14:43;2.73;;;1.50;;
17420;SDS011;8828;48.800;9.540;2023-03-23T12:17:19;3.40;;;1.30;;
17420;SDS011;8828;48.800;9.540;2023-03-23T12:19:55;1.77;;;1.10;;
17420;SDS011;8828;48.800;9.540;2023-03-23T12:22:38;2.70;;;1.30;;
17420;SDS011;8828;48.800;9.540;2023-03-23T12:25:36;1.53;;;1.13;;
17420;SDS011;8828;48.800;9.540;2023-03-23T12:28:17;2.70;;;1.20;;
17420;SDS011;8828;48.800;9.540;2023-03-23T12:30:56;1.80;;;1.20;;
17420;SDS011;8828;48.800;9.540;2023-03-23T12:33:33;2.17;;;1.00;;
17420;SDS011;8828;48.800;9.540;2023-03-23T12:36:14;2.87;;;1.30;;
17420;SDS011;8828;48.800;9.540;2023-03-23T12:38:51;1.47;;;1.10;;
17420;SDS011;8828;48.800;9.540;2023-03-23T12:41:42;1.97;;;1.40;;
17420;SDS011;8828;48.800;9.540;2023-03-23T12:44:16;3.00;;;1.40;;
17420;SDS011;8828;48.800;9.540;2023-03-23T12:46:54;5.30;;;2.20;;
17420;SDS011;8828;48.800;9.540;2023-03-23T12:49:36;2.50;;;1.30;;
17420;SDS011;8828;48.800;9.540;2023-03-23T12:52:10;1.93;;;1.27;;
17420;SDS011;8828;48.800;9.540;2023-03-23T12:54:44;1.93;;;1.10;;
17420;SDS011;8828;48.800;9.540;2023-03-23T12:57:19;1.73;;;1.30;;
17420;SDS011;8828;48.800;9.540;2023-03-23T12:59:53;1.30;;;1.20;;
17420;SDS011;8828;48.800;9.540;2023-03-23T13:02:27;1.90;;;1.30;;
17420;SDS011;8828;48.800;9.540;2023-03-23T13:04:59;1.73;;;1.33;;
17420;SDS011;8828;48.800;9.540;2023-03-23T13:07:33;2.60;;;1.30;;
17420;SDS011;8828;48.800;9.540;2023-03-23T13:10:11;4.73;;;1.60;;
17420;SDS011;8828;48.800;9.540;2023-03-23T13:12:45;1.70;;;1.13;;
17420;SDS011;8828;48.800;9.540;2023-03-23T13:15:18;2.73;;;1.30;;
17420;SDS011;8828;48.800;9.540;2023-03-23T13:17:54;2.37;;;1.30;;
17420;SDS011;8828;48.800;9.540;2023-03-23T13:20:34;3.20;;;1.40;;
17420;SDS011;8828;48.800;9.540;2023-03-23T13:23:09;2.73;;;1.50;;
17420;SDS011;8828;48.800;9.540;2023-03-23T13:25:49;1.50;;;1.20;;
17420;SDS011;8828;48.800;9.540;2023-03-23T13:28:18;1.77;;;1.37;;
17420;SDS011;8828;48.800;9.540;2023-03-23T13:30:57;1.80;;;1.30;;
17420;SDS011;8828;48.800;9.540;2023-03-23T13:33:29;2.50;;;1.53;;
17420;SDS011;8828;48.800;9.540;2023-03-23T13:36:02;2.77;;;1.97;;
17420;SDS011;8828;48.800;9.540;2023-03-23T13:38:34;2.50;;;1.70;;
17420;SDS011;8828;48.800;9.540;2023-03-23T13:41:09;2.40;;;1.70;;
17420;SDS011;8828;48.800;9.540;2023-03-23T13:43:39;2.87;;;1.70;;
17420;SDS011;8828;48.800;9.540;2023-03-23T13:46:10;2.17;;;1.37;;
17420;SDS011;8828;48.800;9.540;2023-03-23T13:48:51;2.23;;;1.30;;
17420;SDS011;8828;48.800;9.540;2023-03-23T13:51:36;2.27;;;1.57;;
17420;SDS011;8828;48.800;9.540;2023-03-23T13:54:24;1.50;;;1.20;;
17420;SDS011;8828;48.800;9.540;2023-03-23T13:56:56;2.23;;;1.40;;
17420;SDS011;8828;48.800;9.540;2023-03-23T13:59:31;3.80;;;2.33;;
17420;SDS011;8828;48.800;9.540;2023-03-23T14:05:09;2.80;;;1.73;;
17420;SDS011;8828;48.800;9.540;2023-03-23T14:07:55;2.00;;;1.60;;
17420;SDS011;8828;48.800;9.540;2023-03-23T14:10:25;2.97;;;1.70;;
17420;SDS011;8828;48.800;9.540;2023-03-23T14:12:58;2.23;;;1.40;;
17420;SDS011;8828;48.800;9.540;2023-03-23T14:15:28;1.77;;;1.40;;
17420;SDS011;8828;48.800;9.540;2023-03-23T14:17:56;2.87;;;1.70;;
17420;SDS011;8828;48.800;9.540;2023-03-23T14:20:25;2.20;;;1.73;;
17420;SDS011;8828;48.800;9.540;2023-03-23T14:22:59;3.23;;;1.57;;
17420;SDS011;8828;48.800;9.540;2023-03-23T14:25:27;5.47;;;2.03;;
17420;SDS011;8828;48.800;9.540;2023-03-23T14:27:57;6.43;;;3.23;;
17420;SDS011;8828;48.800;9.540;2023-03-23T14:30:25;2.77;;;1.87;;
17420;SDS011;8828;48.800;9.540;2023-03-23T14:33:02;4.40;;;2.00;;
17420;SDS011;8828;48.800;9.540;2023-03-23T14:35:33;2.77;;;1.77;;
17420;SDS011;8828;48.800;9.540;2023-03-23T14:38:03;2.33;;;1.70;;
17420;SDS011;8828;48.800;9.540;2023-03-23T14:40:30;6.60;;;1.80;;
17420;SDS011;8828;48.800;9.540;2023-03-23T14:42:57;2.07;;;1.40;;
17420;SDS011;8828;48.800;9.540;2023-03-23T14:45:25;1.77;;;1.17;;
17420;SDS011;8828;48.800;9.540;2023-03-23T14:47:53;3.30;;;1.70;;
17420;SDS011;8828;48.800;9.540;2023-03-23T14:50:24;2.87;;;1.37;;
17420;SDS011;8828;48.800;9.540;2023-03-23T14:52:59;3.00;;;1.60;;
17420;SDS011;8828;48.800;9.540;2023-03-23T14:55:36;2.43;;;1.90;;
17420;SDS011;8828;48.800;9.540;2023-03-23T14:58:06;3.23;;;2.30;;
17420;SDS011;8828;48.800;9.540;2023-03-23T15:00:35;2.63;;;1.60;;
17420;SDS011;8828;48.800;9.540;2023-03-23T15:03:05;1.63;;;1.30;;
17420;SDS011;8828;48.800;9.540;2023-03-23T15:05:38;2.03;;;1.50;;
17420;SDS011;8828;48.800;9.540;2023-03-23T15:08:12;2.73;;;1.50;;
17420;SDS011;8828;48.800;9.540;2023-03-23T15:10:41;2.13;;;1.33;;
17420;SDS011;8828;48.800;9.540;2023-03-23T15:13:10;2.83;;;1.40;;
17420;SDS011;8828;48.800;9.540;2023-03-23T15:15:38;1.93;;;1.27;;
17420;SDS011;8828;48.800;9.540;2023-03-23T15:18:14;3.40;;;1.70;;
17420;SDS011;8828;48.800;9.540;2023-03-23T15:20:52;2.27;;;1.60;;
17420;SDS011;8828;48.800;9.540;2023-03-23T15:23:26;2.17;;;1.40;;
17420;SDS011;8828;48.800;9.540;2023-03-23T15:25:54;2.30;;;1.30;;
17420;SDS011;8828;48.800;9.540;2023-03-23T15:28:27;2.13;;;1.40;;
17420;SDS011;8828;48.800;9.540;2023-03-23T15:30:56;2.83;;;1.50;;
17420;SDS011;8828;48.800;9.540;2023-03-23T15:33:26;4.20;;;2.20;;